sensor_id;sensor_type;location;lat;lon;timestamp;P1;durP1;ratioP1;P2;durP2;ratioP2
49488;SDS011;35382;51.484;11.476;2023-01-09T00:01:16;6.88;;;4.43;;
49488;SDS011;35382;51.484;11.476;2023-01-09T00:02:59;8.32;;;4.80;;
49488;SDS011;35382;51.484;11.476;2023-01-09T00:04:40;7.28;;;4.63;;
49488;SDS011;35382;51.484;11.476;2023-01-09T00:06:21;6.93;;;4.47;;
49488;SDS011;35382;51.484;11.476;2023-01-09T00:08:03;6.10;;;4.18;;
49488;SDS011;35382;51.484;11.476;2023-01-09T00:09:44;6.13;;;4.25;;
49488;SDS011;35382;51.484;11.476;2023-01-09T00:11:25;6.45;;;3.90;;
49488;SDS011;35382;51.484;11.476;2023-01-09T00:13:08;7.63;;;4.72;;
49488;SDS011;35382;51.484;11.476;2023-01-09T00:14:51;7.35;;;5.03;;
49488;SDS011;35382;51.484;11.476;2023-01-09T00:16:32;6.63;;;4.45;;
49488;SDS011;35382;51.484;11.476;2023-01-09T00:18:13;8.35;;;4.72;;
49488;SDS011;35382;51.484;11.476;2023-01-09T00:19:54;7.40;;;4.75;;
49488;SDS011;35382;51.484;11.476;2023-01-09T00:21:36;8.18;;;4.80;;
49488;SDS011;35382;51.484;11.476;2023-01-09T00:23:17;8.52;;;5.38;;
49488;SDS011;35382;51.484;11.476;2023-01-09T00:24:58;8.52;;;5.97;;
49488;SDS011;35382;51.484;11.476;2023-01-09T00:26:39;7.63;;;5.22;;
49488;SDS011;35382;51.484;11.476;2023-01-09T00:28:22;8.27;;;5.18;;
49488;SDS011;35382;51.484;11.476;2023-01-09T00:30:04;9.98;;;6.35;;
49488;SDS011;35382;51.484;11.476;2023-01-09T00:31:45;10.90;;;6.30;;
49488;SDS011;35382;51.484;11.476;2023-01-09T00:33:28;7.97;;;5.32;;
49488;SDS011;35382;51.484;11.476;2023-01-09T00:35:14;8.55;;;5.75;;
49488;SDS011;35382;51.484;11.476;2023-01-09T00:36:57;8.45;;;5.80;;
49488;SDS011;35382;51.484;11.476;2023-01-09T00:38:38;8.88;;;5.78;;
49488;SDS011;35382;51.484;11.476;2023-01-09T00:40:19;7.85;;;5.32;;
49488;SDS011;35382;51.484;11.476;2023-01-09T00:42:01;8.63;;;5.53;;
49488;SDS011;35382;51.484;11.476;2023-01-09T00:43:44;8.52;;;5.00;;
49488;SDS011;35382;51.484;11.476;2023-01-09T00:45:28;8.75;;;5.18;;
49488;SDS011;35382;51.484;11.476;2023-01-09T00:47:11;8.68;;;5.40;;
49488;SDS011;35382;51.484;11.476;2023-01-09T00:48:55;8.07;;;5.18;;
49488;SDS011;35382;51.484;11.476;2023-01-09T00:50:36;10.15;;;5.78;;
49488;SDS011;35382;51.484;11.476;2023-01-09T00:52:18;10.57;;;6.30;;
49488;SDS011;35382;51.484;11.476;2023-01-09T00:54:02;11.75;;;6.68;;
49488;SDS011;35382;51.484;11.476;2023-01-09T00:55:43;12.65;;;7.22;;
49488;SDS011;35382;51.484;11.476;2023-01-09T00:57:24;13.43;;;7.60;;
49488;SDS011;35382;51.484;11.476;2023-01-09T00:59:06;13.88;;;8.18;;
49488;SDS011;35382;51.484;11.476;2023-01-09T01:00:47;12.00;;;7.57;;
49488;SDS011;35382;51.484;11.476;2023-01-09T01:02:28;15.70;;;9.68;;
49488;SDS011;35382;51.484;11.476;2023-01-09T01:04:09;14.48;;;8.25;;
49488;SDS011;35382;51.484;11.476;2023-01-09T01:06:09;23.05;;;11.27;;
49488;SDS011;35382;51.484;11.476;2023-01-09T01:08:10;21.55;;;12.05;;
49488;SDS011;35382;51.484;11.476;2023-01-09T01:09:52;23.17;;;11.85;;
49488;SDS011;35382;51.484;11.476;2023-01-09T01:11:34;16.45;;;8.05;;
49488;SDS011;35382;51.484;11.476;2023-01-09T01:13:15;12.32;;;7.53;;
49488;SDS011;35382;51.484;11.476;2023-01-09T01:14:57;12.75;;;7.18;;
49488;SDS011;35382;51.484;11.476;2023-01-09T01:16:38;12.93;;;7.53;;
49488;SDS011;35382;51.484;11.476;2023-01-09T01:18:20;10.65;;;7.45;;
49488;SDS011;35382;51.484;11.476;2023-01-09T01:20:02;13.00;;;8.05;;
49488;SDS011;35382;51.484;11.476;2023-01-09T01:21:45;12.48;;;8.25;;
49488;SDS011;35382;51.484;11.476;2023-01-09T01:23:26;12.07;;;8.02;;
49488;SDS011;35382;51.484;11.476;2023-01-09T01:25:07;12.75;;;7.30;;
49488;SDS011;35382;51.484;11.476;2023-01-09T01:26:49;13.48;;;7.78;;
49488;SDS011;35382;51.484;11.476;2023-01-09T01:28:30;10.98;;;7.80;;
49488;SDS011;35382;51.484;11.476;2023-01-09T01:30:12;10.93;;;7.10;;
49488;SDS011;35382;51.484;11.476;2023-01-09T01:31:54;10.75;;;7.15;;
49488;SDS011;35382;51.484;11.476;2023-01-09T01:33:36;10.60;;;7.43;;
49488;SDS011;35382;51.484;11.476;2023-01-09T01:35:17;10.57;;;7.50;;
49488;SDS011;35382;51.484;11.476;2023-01-09T01:36:58;10.30;;;7.10;;
49488;SDS011;35382;51.484;11.476;2023-01-09T01:38:39;10.85;;;7.25;;
49488;SDS011;35382;51.484;11.476;2023-01-09T01:40:20;10.02;;;6.63;;
49488;SDS011;35382;51.484;11.476;2023-01-09T01:42:04;10.43;;;7.05;;
49488;SDS011;35382;51.484;11.476;2023-01-09T01:43:52;11.38;;;7.47;;
49488;SDS011;35382;51.484;11.476;2023-01-09T01:45:41;11.38;;;7.25;;
49488;SDS011;35382;51.484;11.476;2023-01-09T01:47:24;10.15;;;7.47;;
49488;SDS011;35382;51.484;11.476;2023-01-09T01:49:27;12.07;;;7.53;;
49488;SDS011;35382;51.484;11.476;2023-01-09T01:51:08;10.32;;;7.75;;
49488;SDS011;35382;51.484;11.476;2023-01-09T01:53:04;10.65;;;7.50;;
49488;SDS011;35382;51.484;11.476;2023-01-09T01:54:46;11.20;;;7.97;;
49488;SDS011;35382;51.484;11.476;2023-01-09T01:56:34;10.70;;;7.20;;
49488;SDS011;35382;51.484;11.476;2023-01-09T01:58:19;11.23;;;7.97;;
49488;SDS011;35382;51.484;11.476;2023-01-09T02:00:00;9.95;;;7.30;;
49488;SDS011;35382;51.484;11.476;2023-01-09T02:01:47;11.00;;;7.88;;
49488;SDS011;35382;51.484;11.476;2023-01-09T02:03:30;12.48;;;8.05;;
49488;SDS011;35382;51.484;11.476;2023-01-09T02:05:12;10.52;;;7.60;;
49488;SDS011;35382;51.484;11.476;2023-01-09T02:06:54;10.88;;;7.38;;
49488;SDS011;35382;51.484;11.476;2023-01-09T02:08:36;11.38;;;8.07;;
49488;SDS011;35382;51.484;11.476;2023-01-09T02:10:17;11.95;;;7.82;;
49488;SDS011;35382;51.484;11.476;2023-01-09T02:12:13;10.85;;;7.88;;
49488;SDS011;35382;51.484;11.476;2023-01-09T02:13:56;9.60;;;7.18;;
49488;SDS011;35382;51.484;11.476;2023-01-09T02:15:42;11.00;;;7.55;;
49488;SDS011;35382;51.484;11.476;2023-01-09T02:27:55;10.52;;;7.30;;
49488;SDS011;35382;51.484;11.476;2023-01-09T02:29:50;11.00;;;7.45;;
49488;SDS011;35382;51.484;11.476;2023-01-09T02:31:48;10.32;;;7.63;;
49488;SDS011;35382;51.484;11.476;2023-01-09T02:33:41;10.50;;;7.50;;
49488;SDS011;35382;51.484;11.476;2023-01-09T02:35:30;11.68;;;7.68;;
49488;SDS011;35382;51.484;11.476;2023-01-09T02:39:32;11.57;;;7.35;;
49488;SDS011;35382;51.484;11.476;2023-01-09T02:42:59;10.98;;;7.72;;
49488;SDS011;35382;51.484;11.476;2023-01-09T02:44:42;11.88;;;7.47;;
49488;SDS011;35382;51.484;11.476;2023-01-09T02:46:24;11.23;;;8.20;;
49488;SDS011;35382;51.484;11.476;2023-01-09T02:48:05;11.05;;;7.50;;
49488;SDS011;35382;51.484;11.476;2023-01-09T02:51:34;11.50;;;7.53;;
49488;SDS011;35382;51.484;11.476;2023-01-09T02:55:53;11.02;;;7.75;;
49488;SDS011;35382;51.484;11.476;2023-01-09T03:00:30;11.52;;;7.97;;
49488;SDS011;35382;51.484;11.476;2023-01-09T03:03:39;16.58;;;9.32;;
49488;SDS011;35382;51.484;11.476;2023-01-09T03:07:37;14.02;;;9.38;;
49488;SDS011;35382;51.484;11.476;2023-01-09T03:09:32;17.80;;;9.85;;
49488;SDS011;35382;51.484;11.476;2023-01-09T03:11:15;17.23;;;10.35;;
49488;SDS011;35382;51.484;11.476;2023-01-09T03:12:57;18.25;;;11.15;;
49488;SDS011;35382;51.484;11.476;2023-01-09T03:14:42;19.67;;;11.13;;
49488;SDS011;35382;51.484;11.476;2023-01-09T03:16:27;17.67;;;10.85;;
49488;SDS011;35382;51.484;11.476;2023-01-09T03:18:11;20.70;;;12.25;;
49488;SDS011;35382;51.484;11.476;2023-01-09T03:19:53;21.27;;;12.23;;
49488;SDS011;35382;51.484;11.476;2023-01-09T03:21:37;18.40;;;11.38;;
49488;SDS011;35382;51.484;11.476;2023-01-09T03:23:19;19.95;;;11.93;;
49488;SDS011;35382;51.484;11.476;2023-01-09T03:25:00;17.42;;;11.43;;
49488;SDS011;35382;51.484;11.476;2023-01-09T03:26:41;21.98;;;12.60;;
49488;SDS011;35382;51.484;11.476;2023-01-09T03:28:27;20.67;;;12.52;;
49488;SDS011;35382;51.484;11.476;2023-01-09T03:30:09;17.77;;;10.43;;
49488;SDS011;35382;51.484;11.476;2023-01-09T03:31:50;19.15;;;11.43;;
49488;SDS011;35382;51.484;11.476;2023-01-09T03:33:31;18.90;;;12.50;;
49488;SDS011;35382;51.484;11.476;2023-01-09T03:35:12;18.80;;;11.55;;
49488;SDS011;35382;51.484;11.476;2023-01-09T03:36:54;18.67;;;11.60;;
49488;SDS011;35382;51.484;11.476;2023-01-09T03:38:35;19.13;;;11.63;;
49488;SDS011;35382;51.484;11.476;2023-01-09T03:40:19;18.83;;;11.68;;
49488;SDS011;35382;51.484;11.476;2023-01-09T03:42:01;19.40;;;11.13;;
49488;SDS011;35382;51.484;11.476;2023-01-09T03:43:42;17.70;;;10.93;;
49488;SDS011;35382;51.484;11.476;2023-01-09T03:45:23;19.23;;;11.80;;
49488;SDS011;35382;51.484;11.476;2023-01-09T03:47:04;17.50;;;10.75;;
49488;SDS011;35382;51.484;11.476;2023-01-09T03:48:45;18.23;;;11.27;;
49488;SDS011;35382;51.484;11.476;2023-01-09T03:50:27;17.98;;;11.18;;
49488;SDS011;35382;51.484;11.476;2023-01-09T03:52:08;17.98;;;11.18;;
49488;SDS011;35382;51.484;11.476;2023-01-09T03:53:49;19.17;;;11.27;;
49488;SDS011;35382;51.484;11.476;2023-01-09T03:55:30;17.48;;;10.90;;
49488;SDS011;35382;51.484;11.476;2023-01-09T03:57:14;16.48;;;10.18;;
49488;SDS011;35382;51.484;11.476;2023-01-09T03:58:55;17.05;;;10.68;;
49488;SDS011;35382;51.484;11.476;2023-01-09T04:00:36;16.48;;;10.63;;
49488;SDS011;35382;51.484;11.476;2023-01-09T04:02:19;17.13;;;9.90;;
49488;SDS011;35382;51.484;11.476;2023-01-09T04:04:00;18.08;;;10.95;;
49488;SDS011;35382;51.484;11.476;2023-01-09T04:05:42;15.45;;;10.48;;
49488;SDS011;35382;51.484;11.476;2023-01-09T04:07:23;14.70;;;10.05;;
49488;SDS011;35382;51.484;11.476;2023-01-09T04:09:04;18.30;;;11.13;;
49488;SDS011;35382;51.484;11.476;2023-01-09T04:10:46;17.15;;;10.20;;
49488;SDS011;35382;51.484;11.476;2023-01-09T04:12:28;18.08;;;10.95;;
49488;SDS011;35382;51.484;11.476;2023-01-09T04:14:09;16.95;;;10.90;;
49488;SDS011;35382;51.484;11.476;2023-01-09T04:15:50;17.10;;;11.38;;
49488;SDS011;35382;51.484;11.476;2023-01-09T04:17:31;19.48;;;11.88;;
49488;SDS011;35382;51.484;11.476;2023-01-09T04:19:12;16.40;;;10.73;;
49488;SDS011;35382;51.484;11.476;2023-01-09T04:20:53;19.40;;;11.18;;
49488;SDS011;35382;51.484;11.476;2023-01-09T04:22:34;17.30;;;11.45;;
49488;SDS011;35382;51.484;11.476;2023-01-09T04:24:16;21.20;;;11.82;;
49488;SDS011;35382;51.484;11.476;2023-01-09T04:25:57;18.27;;;11.52;;
49488;SDS011;35382;51.484;11.476;2023-01-09T04:27:38;18.00;;;11.57;;
49488;SDS011;35382;51.484;11.476;2023-01-09T04:29:19;21.40;;;13.13;;
49488;SDS011;35382;51.484;11.476;2023-01-09T04:31:00;21.38;;;12.18;;
49488;SDS011;35382;51.484;11.476;2023-01-09T04:32:42;18.95;;;11.82;;
49488;SDS011;35382;51.484;11.476;2023-01-09T04:34:23;19.35;;;12.02;;
49488;SDS011;35382;51.484;11.476;2023-01-09T04:36:05;22.10;;;13.88;;
49488;SDS011;35382;51.484;11.476;2023-01-09T04:37:46;19.52;;;12.60;;
49488;SDS011;35382;51.484;11.476;2023-01-09T04:39:28;23.20;;;13.35;;
49488;SDS011;35382;51.484;11.476;2023-01-09T04:41:09;19.60;;;11.82;;
49488;SDS011;35382;51.484;11.476;2023-01-09T04:42:50;22.02;;;12.75;;
49488;SDS011;35382;51.484;11.476;2023-01-09T04:44:31;18.50;;;11.88;;
49488;SDS011;35382;51.484;11.476;2023-01-09T04:46:12;19.90;;;12.55;;
49488;SDS011;35382;51.484;11.476;2023-01-09T04:47:53;20.80;;;12.90;;
49488;SDS011;35382;51.484;11.476;2023-01-09T04:49:34;20.27;;;13.07;;
49488;SDS011;35382;51.484;11.476;2023-01-09T04:51:15;20.27;;;13.13;;
49488;SDS011;35382;51.484;11.476;2023-01-09T04:52:56;21.70;;;13.70;;
49488;SDS011;35382;51.484;11.476;2023-01-09T04:54:37;21.95;;;13.57;;
49488;SDS011;35382;51.484;11.476;2023-01-09T04:56:19;22.77;;;13.65;;
49488;SDS011;35382;51.484;11.476;2023-01-09T04:58:00;21.42;;;13.38;;
49488;SDS011;35382;51.484;11.476;2023-01-09T04:59:41;21.90;;;14.13;;
49488;SDS011;35382;51.484;11.476;2023-01-09T05:01:22;20.63;;;13.18;;
49488;SDS011;35382;51.484;11.476;2023-01-09T05:03:03;21.10;;;13.23;;
49488;SDS011;35382;51.484;11.476;2023-01-09T05:04:44;20.67;;;13.05;;
49488;SDS011;35382;51.484;11.476;2023-01-09T05:06:25;19.23;;;12.25;;
49488;SDS011;35382;51.484;11.476;2023-01-09T05:08:06;20.58;;;13.20;;
49488;SDS011;35382;51.484;11.476;2023-01-09T05:09:48;19.52;;;12.43;;
49488;SDS011;35382;51.484;11.476;2023-01-09T05:11:29;19.65;;;12.45;;
49488;SDS011;35382;51.484;11.476;2023-01-09T05:13:10;18.38;;;12.02;;
49488;SDS011;35382;51.484;11.476;2023-01-09T05:14:51;18.75;;;12.45;;
49488;SDS011;35382;51.484;11.476;2023-01-09T05:16:32;18.63;;;12.07;;
49488;SDS011;35382;51.484;11.476;2023-01-09T05:18:13;19.25;;;11.90;;
49488;SDS011;35382;51.484;11.476;2023-01-09T05:19:55;16.58;;;11.55;;
49488;SDS011;35382;51.484;11.476;2023-01-09T05:21:36;19.67;;;11.75;;
49488;SDS011;35382;51.484;11.476;2023-01-09T05:23:17;18.85;;;12.55;;
49488;SDS011;35382;51.484;11.476;2023-01-09T05:24:58;20.25;;;12.35;;
49488;SDS011;35382;51.484;11.476;2023-01-09T05:26:39;18.80;;;12.52;;
49488;SDS011;35382;51.484;11.476;2023-01-09T05:28:20;18.85;;;12.30;;
49488;SDS011;35382;51.484;11.476;2023-01-09T05:30:01;18.30;;;12.25;;
49488;SDS011;35382;51.484;11.476;2023-01-09T05:31:42;17.30;;;11.27;;
49488;SDS011;35382;51.484;11.476;2023-01-09T05:33:23;19.63;;;11.90;;
49488;SDS011;35382;51.484;11.476;2023-01-09T05:35:04;18.58;;;11.57;;
49488;SDS011;35382;51.484;11.476;2023-01-09T05:36:46;20.60;;;11.63;;
49488;SDS011;35382;51.484;11.476;2023-01-09T05:38:27;17.58;;;11.73;;
49488;SDS011;35382;51.484;11.476;2023-01-09T05:40:08;16.88;;;10.90;;
49488;SDS011;35382;51.484;11.476;2023-01-09T05:41:49;16.48;;;10.00;;
49488;SDS011;35382;51.484;11.476;2023-01-09T05:43:30;15.63;;;10.52;;
49488;SDS011;35382;51.484;11.476;2023-01-09T05:45:11;15.88;;;10.10;;
49488;SDS011;35382;51.484;11.476;2023-01-09T05:46:53;14.48;;;9.38;;
49488;SDS011;35382;51.484;11.476;2023-01-09T05:48:34;13.00;;;8.85;;
49488;SDS011;35382;51.484;11.476;2023-01-09T05:50:15;14.95;;;9.18;;
49488;SDS011;35382;51.484;11.476;2023-01-09T05:51:56;15.57;;;9.35;;
49488;SDS011;35382;51.484;11.476;2023-01-09T05:53:37;14.27;;;9.10;;
49488;SDS011;35382;51.484;11.476;2023-01-09T05:55:18;15.52;;;10.13;;
49488;SDS011;35382;51.484;11.476;2023-01-09T05:56:59;13.60;;;8.70;;
49488;SDS011;35382;51.484;11.476;2023-01-09T05:58:40;14.68;;;9.52;;
49488;SDS011;35382;51.484;11.476;2023-01-09T06:00:21;13.93;;;8.95;;
49488;SDS011;35382;51.484;11.476;2023-01-09T06:02:02;14.20;;;9.23;;
49488;SDS011;35382;51.484;11.476;2023-01-09T06:03:44;15.95;;;9.70;;
49488;SDS011;35382;51.484;11.476;2023-01-09T06:05:25;14.27;;;9.18;;
49488;SDS011;35382;51.484;11.476;2023-01-09T06:07:06;14.13;;;8.95;;
49488;SDS011;35382;51.484;11.476;2023-01-09T06:08:47;12.88;;;9.35;;
49488;SDS011;35382;51.484;11.476;2023-01-09T06:10:28;13.80;;;8.98;;
49488;SDS011;35382;51.484;11.476;2023-01-09T06:12:09;14.77;;;9.52;;
49488;SDS011;35382;51.484;11.476;2023-01-09T06:13:50;16.10;;;9.80;;
49488;SDS011;35382;51.484;11.476;2023-01-09T06:15:31;18.92;;;10.15;;
49488;SDS011;35382;51.484;11.476;2023-01-09T06:17:12;16.55;;;9.18;;
49488;SDS011;35382;51.484;11.476;2023-01-09T06:18:53;14.82;;;9.45;;
49488;SDS011;35382;51.484;11.476;2023-01-09T06:20:34;15.52;;;9.77;;
49488;SDS011;35382;51.484;11.476;2023-01-09T06:22:15;13.93;;;7.78;;
49488;SDS011;35382;51.484;11.476;2023-01-09T06:23:56;14.60;;;7.20;;
49488;SDS011;35382;51.484;11.476;2023-01-09T06:25:37;12.63;;;7.30;;
49488;SDS011;35382;51.484;11.476;2023-01-09T06:27:18;13.73;;;8.50;;
49488;SDS011;35382;51.484;11.476;2023-01-09T06:29:00;10.40;;;6.18;;
49488;SDS011;35382;51.484;11.476;2023-01-09T06:30:41;10.93;;;5.63;;
49488;SDS011;35382;51.484;11.476;2023-01-09T06:32:22;7.10;;;4.22;;
49488;SDS011;35382;51.484;11.476;2023-01-09T06:34:03;5.57;;;3.47;;
49488;SDS011;35382;51.484;11.476;2023-01-09T06:35:44;6.35;;;3.85;;
49488;SDS011;35382;51.484;11.476;2023-01-09T06:37:25;6.22;;;3.53;;
49488;SDS011;35382;51.484;11.476;2023-01-09T06:39:06;6.22;;;3.67;;
49488;SDS011;35382;51.484;11.476;2023-01-09T06:40:47;8.07;;;4.53;;
49488;SDS011;35382;51.484;11.476;2023-01-09T06:42:29;6.40;;;4.47;;
49488;SDS011;35382;51.484;11.476;2023-01-09T06:44:10;7.40;;;4.82;;
49488;SDS011;35382;51.484;11.476;2023-01-09T06:45:51;10.32;;;5.13;;
49488;SDS011;35382;51.484;11.476;2023-01-09T06:47:33;8.73;;;5.20;;
49488;SDS011;35382;51.484;11.476;2023-01-09T06:49:14;9.05;;;5.47;;
49488;SDS011;35382;51.484;11.476;2023-01-09T06:50:56;10.55;;;6.03;;
49488;SDS011;35382;51.484;11.476;2023-01-09T06:52:37;11.35;;;7.15;;
49488;SDS011;35382;51.484;11.476;2023-01-09T06:54:19;11.60;;;7.03;;
49488;SDS011;35382;51.484;11.476;2023-01-09T06:56:00;11.57;;;7.57;;
49488;SDS011;35382;51.484;11.476;2023-01-09T06:57:42;11.15;;;7.10;;
49488;SDS011;35382;51.484;11.476;2023-01-09T06:59:23;13.68;;;8.27;;
49488;SDS011;35382;51.484;11.476;2023-01-09T07:01:04;14.05;;;8.77;;
49488;SDS011;35382;51.484;11.476;2023-01-09T07:02:48;13.20;;;7.88;;
49488;SDS011;35382;51.484;11.476;2023-01-09T07:04:29;13.55;;;8.10;;
49488;SDS011;35382;51.484;11.476;2023-01-09T07:06:10;13.40;;;8.45;;
49488;SDS011;35382;51.484;11.476;2023-01-09T07:07:52;11.90;;;8.02;;
49488;SDS011;35382;51.484;11.476;2023-01-09T07:09:33;14.27;;;9.07;;
49488;SDS011;35382;51.484;11.476;2023-01-09T07:11:14;14.98;;;9.30;;
49488;SDS011;35382;51.484;11.476;2023-01-09T07:12:55;15.77;;;9.75;;
49488;SDS011;35382;51.484;11.476;2023-01-09T07:14:36;15.35;;;9.30;;
49488;SDS011;35382;51.484;11.476;2023-01-09T07:16:17;13.57;;;8.70;;
49488;SDS011;35382;51.484;11.476;2023-01-09T07:17:58;15.90;;;10.38;;
49488;SDS011;35382;51.484;11.476;2023-01-09T07:19:39;17.00;;;9.82;;
49488;SDS011;35382;51.484;11.476;2023-01-09T07:21:21;17.27;;;10.45;;
49488;SDS011;35382;51.484;11.476;2023-01-09T07:23:02;13.98;;;8.65;;
49488;SDS011;35382;51.484;11.476;2023-01-09T07:24:43;15.30;;;9.57;;
49488;SDS011;35382;51.484;11.476;2023-01-09T07:26:24;15.82;;;9.10;;
49488;SDS011;35382;51.484;11.476;2023-01-09T07:28:06;14.23;;;9.10;;
49488;SDS011;35382;51.484;11.476;2023-01-09T07:29:47;14.30;;;8.65;;
49488;SDS011;35382;51.484;11.476;2023-01-09T07:31:28;13.23;;;8.20;;
49488;SDS011;35382;51.484;11.476;2023-01-09T07:33:09;12.68;;;8.32;;
49488;SDS011;35382;51.484;11.476;2023-01-09T07:34:50;13.13;;;8.15;;
49488;SDS011;35382;51.484;11.476;2023-01-09T07:36:31;14.32;;;7.60;;
49488;SDS011;35382;51.484;11.476;2023-01-09T07:38:12;10.88;;;7.15;;
49488;SDS011;35382;51.484;11.476;2023-01-09T07:39:53;11.38;;;7.18;;
49488;SDS011;35382;51.484;11.476;2023-01-09T07:41:34;12.45;;;7.95;;
49488;SDS011;35382;51.484;11.476;2023-01-09T07:43:15;11.82;;;7.60;;
49488;SDS011;35382;51.484;11.476;2023-01-09T07:44:56;10.65;;;7.22;;
49488;SDS011;35382;51.484;11.476;2023-01-09T07:46:37;10.63;;;7.15;;
49488;SDS011;35382;51.484;11.476;2023-01-09T07:48:19;11.68;;;6.55;;
49488;SDS011;35382;51.484;11.476;2023-01-09T07:50:00;9.88;;;5.63;;
49488;SDS011;35382;51.484;11.476;2023-01-09T07:51:41;8.65;;;4.70;;
49488;SDS011;35382;51.484;11.476;2023-01-09T07:53:22;8.55;;;4.70;;
49488;SDS011;35382;51.484;11.476;2023-01-09T07:55:04;6.18;;;3.72;;
49488;SDS011;35382;51.484;11.476;2023-01-09T07:56:45;5.90;;;3.10;;
49488;SDS011;35382;51.484;11.476;2023-01-09T07:58:26;6.35;;;3.05;;
49488;SDS011;35382;51.484;11.476;2023-01-09T08:00:09;4.32;;;2.28;;
49488;SDS011;35382;51.484;11.476;2023-01-09T08:01:53;4.28;;;2.45;;
49488;SDS011;35382;51.484;11.476;2023-01-09T08:03:34;5.40;;;2.30;;
49488;SDS011;35382;51.484;11.476;2023-01-09T08:05:15;4.25;;;2.20;;
49488;SDS011;35382;51.484;11.476;2023-01-09T08:06:56;4.50;;;1.80;;
49488;SDS011;35382;51.484;11.476;2023-01-09T08:08:37;3.33;;;1.90;;
49488;SDS011;35382;51.484;11.476;2023-01-09T08:10:18;3.58;;;1.88;;
49488;SDS011;35382;51.484;11.476;2023-01-09T08:12:00;3.10;;;1.73;;
49488;SDS011;35382;51.484;11.476;2023-01-09T08:13:41;2.95;;;1.50;;
49488;SDS011;35382;51.484;11.476;2023-01-09T08:15:22;2.97;;;1.40;;
49488;SDS011;35382;51.484;11.476;2023-01-09T08:17:03;3.88;;;1.60;;
49488;SDS011;35382;51.484;11.476;2023-01-09T08:18:44;4.25;;;1.60;;
49488;SDS011;35382;51.484;11.476;2023-01-09T08:20:25;2.95;;;1.52;;
49488;SDS011;35382;51.484;11.476;2023-01-09T08:22:07;3.05;;;1.70;;
49488;SDS011;35382;51.484;11.476;2023-01-09T08:23:48;3.15;;;1.70;;
49488;SDS011;35382;51.484;11.476;2023-01-09T08:25:29;2.83;;;1.70;;
49488;SDS011;35382;51.484;11.476;2023-01-09T08:27:10;2.60;;;1.52;;
49488;SDS011;35382;51.484;11.476;2023-01-09T08:28:51;3.58;;;1.73;;
49488;SDS011;35382;51.484;11.476;2023-01-09T08:30:32;3.03;;;1.67;;
49488;SDS011;35382;51.484;11.476;2023-01-09T08:32:13;3.92;;;2.10;;
49488;SDS011;35382;51.484;11.476;2023-01-09T08:33:55;4.05;;;2.17;;
49488;SDS011;35382;51.484;11.476;2023-01-09T08:35:37;3.55;;;1.80;;
49488;SDS011;35382;51.484;11.476;2023-01-09T08:37:18;3.88;;;2.17;;
49488;SDS011;35382;51.484;11.476;2023-01-09T08:38:59;4.15;;;2.58;;
49488;SDS011;35382;51.484;11.476;2023-01-09T08:40:40;2.80;;;1.70;;
49488;SDS011;35382;51.484;11.476;2023-01-09T08:42:21;3.50;;;1.60;;
49488;SDS011;35382;51.484;11.476;2023-01-09T08:44:38;3.50;;;1.87;;
49488;SDS011;35382;51.484;11.476;2023-01-09T08:46:37;4.28;;;2.28;;
49488;SDS011;35382;51.484;11.476;2023-01-09T08:48:37;2.67;;;1.75;;
49488;SDS011;35382;51.484;11.476;2023-01-09T08:50:18;2.97;;;1.55;;
49488;SDS011;35382;51.484;11.476;2023-01-09T08:51:59;4.40;;;1.55;;
49488;SDS011;35382;51.484;11.476;2023-01-09T08:53:40;3.63;;;1.90;;
49488;SDS011;35382;51.484;11.476;2023-01-09T08:55:22;2.75;;;1.50;;
49488;SDS011;35382;51.484;11.476;2023-01-09T08:57:03;2.67;;;1.17;;
49488;SDS011;35382;51.484;11.476;2023-01-09T08:58:44;2.47;;;1.10;;
49488;SDS011;35382;51.484;11.476;2023-01-09T09:00:25;1.98;;;1.20;;
49488;SDS011;35382;51.484;11.476;2023-01-09T09:02:07;2.42;;;1.30;;
49488;SDS011;35382;51.484;11.476;2023-01-09T09:03:49;2.33;;;1.20;;
49488;SDS011;35382;51.484;11.476;2023-01-09T09:05:30;2.63;;;1.35;;
49488;SDS011;35382;51.484;11.476;2023-01-09T09:07:13;3.83;;;1.73;;
49488;SDS011;35382;51.484;11.476;2023-01-09T09:08:54;2.97;;;1.58;;
49488;SDS011;35382;51.484;11.476;2023-01-09T09:10:36;3.00;;;1.35;;
49488;SDS011;35382;51.484;11.476;2023-01-09T09:12:17;2.85;;;1.40;;
49488;SDS011;35382;51.484;11.476;2023-01-09T09:13:58;2.00;;;1.10;;
49488;SDS011;35382;51.484;11.476;2023-01-09T09:15:39;1.77;;;1.17;;
49488;SDS011;35382;51.484;11.476;2023-01-09T09:17:20;2.22;;;1.10;;
49488;SDS011;35382;51.484;11.476;2023-01-09T09:19:01;2.35;;;1.20;;
49488;SDS011;35382;51.484;11.476;2023-01-09T09:20:42;3.25;;;1.30;;
49488;SDS011;35382;51.484;11.476;2023-01-09T09:22:23;3.63;;;1.30;;
49488;SDS011;35382;51.484;11.476;2023-01-09T09:24:05;2.65;;;1.27;;
49488;SDS011;35382;51.484;11.476;2023-01-09T09:25:46;2.17;;;1.10;;
49488;SDS011;35382;51.484;11.476;2023-01-09T09:27:27;2.67;;;1.00;;
49488;SDS011;35382;51.484;11.476;2023-01-09T09:29:08;2.22;;;1.10;;
49488;SDS011;35382;51.484;11.476;2023-01-09T09:30:49;3.38;;;1.20;;
49488;SDS011;35382;51.484;11.476;2023-01-09T09:32:31;4.88;;;1.17;;
49488;SDS011;35382;51.484;11.476;2023-01-09T09:34:12;2.30;;;0.80;;
49488;SDS011;35382;51.484;11.476;2023-01-09T09:35:53;3.17;;;1.00;;
49488;SDS011;35382;51.484;11.476;2023-01-09T09:37:34;2.20;;;1.10;;
49488;SDS011;35382;51.484;11.476;2023-01-09T09:39:16;2.42;;;0.93;;
49488;SDS011;35382;51.484;11.476;2023-01-09T09:45:51;3.17;;;0.93;;
49488;SDS011;35382;51.484;11.476;2023-01-09T09:47:42;2.67;;;0.80;;
49488;SDS011;35382;51.484;11.476;2023-01-09T09:49:53;1.63;;;0.90;;
49488;SDS011;35382;51.484;11.476;2023-01-09T09:54:09;3.65;;;1.00;;
49488;SDS011;35382;51.484;11.476;2023-01-09T09:55:54;1.30;;;0.70;;
49488;SDS011;35382;51.484;11.476;2023-01-09T09:57:37;2.17;;;0.90;;
49488;SDS011;35382;51.484;11.476;2023-01-09T09:59:28;2.33;;;1.08;;
49488;SDS011;35382;51.484;11.476;2023-01-09T10:01:14;3.33;;;0.80;;
49488;SDS011;35382;51.484;11.476;2023-01-09T10:03:09;1.45;;;0.73;;
49488;SDS011;35382;51.484;11.476;2023-01-09T10:05:18;3.35;;;0.90;;
49488;SDS011;35382;51.484;11.476;2023-01-09T10:07:25;1.52;;;0.80;;
49488;SDS011;35382;51.484;11.476;2023-01-09T10:11:15;2.25;;;0.75;;
49488;SDS011;35382;51.484;11.476;2023-01-09T10:13:00;1.40;;;0.70;;
49488;SDS011;35382;51.484;11.476;2023-01-09T10:15:17;2.90;;;0.80;;
49488;SDS011;35382;51.484;11.476;2023-01-09T10:21:16;2.58;;;0.90;;
49488;SDS011;35382;51.484;11.476;2023-01-09T10:27:01;2.92;;;0.80;;
49488;SDS011;35382;51.484;11.476;2023-01-09T10:28:58;1.83;;;0.70;;
49488;SDS011;35382;51.484;11.476;2023-01-09T10:38:53;2.53;;;0.70;;
49488;SDS011;35382;51.484;11.476;2023-01-09T10:40:56;2.35;;;0.70;;
49488;SDS011;35382;51.484;11.476;2023-01-09T10:45:16;2.85;;;0.70;;
49488;SDS011;35382;51.484;11.476;2023-01-09T10:49:18;2.05;;;0.70;;
49488;SDS011;35382;51.484;11.476;2023-01-09T10:51:11;2.03;;;0.57;;
49488;SDS011;35382;51.484;11.476;2023-01-09T10:52:59;2.33;;;0.85;;
49488;SDS011;35382;51.484;11.476;2023-01-09T10:57:13;2.15;;;0.80;;
49488;SDS011;35382;51.484;11.476;2023-01-09T10:59:18;3.78;;;0.70;;
49488;SDS011;35382;51.484;11.476;2023-01-09T11:00:59;1.27;;;0.70;;
49488;SDS011;35382;51.484;11.476;2023-01-09T11:02:41;2.47;;;0.70;;